首页
METAR-TAF:

METAR-TAF

机场 :

Friday Harbor Airport

Friday Harbor, 华盛顿, 美国

纬度: 48-31-13N, 经度: 123-01-31W, 海拔: 33米

当前天气观测

该预报发布于12分钟前的09:33 UTC
风速5节,风向东转东南
温度 8°C
湿度 100%
气压 1014 hPa
能見度: 9.7公里
散云层高于600英尺
轻雾

METAR: KFHR 150933Z AUTO 11005KT 6SM BR SCT006 08/08 A2994 RMK AO2 T00830078

时间: 01:45 (09:45 UTC)


TAF: 丢失

超过4000个机场的气象观测和天气预报(METAR&TAF报告)。

可查询的气象台以黄色和红色小点在地图上表示。

将鼠标移到小点上方,可查看气象台名称。

然后点击查看天气观测和预报。

如需切换地图:点击带黑十字的绿色按钮放大地图;点击带横线的绿色按钮缩小地图;或者点击绿色箭头查看邻近地区的地图。


METAR-TAF: